Terminal Aerodrome Forecast
Issued by NWS

Current Version | Previous Version | Text Only | Print | Product List | Glossary On
Versions: 1 2 3 4 5 6 7 8 9 10 11 12 13 14 15 16 17
405
FTUS43 KSGF 240544
TAFJLN
TAF
KJLN 240544Z 2406/2506 30006KT P6SM BKN100
     FM241200 31005KT P6SM BKN025
     FM241800 31011G18KT P6SM VCSH BKN035
     FM250000 31006KT P6SM BKN035=

USA.gov is the U.S. government's official web portal to all federal, state and local government web resources and services.